Time;durP1;ratioP1;P1;durP2;ratioP2;P2;SDS_P1;SDS_P2;PMS_P1;PMS_P2;Temp;Humidity;BMP_temperature;BMP_pressure;BME280_temperature;BME280_humidity;BME280_pressure;Samples;Min_cycle;Max_cycle;Signal;HPM_P1;HPM_P2
2022/06/09 09:19:24;;;;;;;115.95;8.82;;;;;;;19.36;50.65;96437.03;2090923;28;20585;-62
2022/06/09 09:23:40;;;;;;;116.28;8.18;;;;;;;19.43;52.52;96443.50;2084283;28;21042;-62
2022/06/09 09:25:02;;;;;;;121.25;10.77;;;;;;;19.49;51.01;96442.97;2078518;28;20201;-62
2022/06/09 09:26:07;;;;;;;113.20;8.60;;;;;;;19.45;51.10;96441.53;2078731;28;20636;-62
2022/06/09 09:30:53;;;;;;;118.30;6.45;;;;;;;18.74;51.26;96444.66;2101929;27;20559;-62
2022/06/09 09:33:27;;;;;;;118.03;8.40;;;;;;;18.88;51.04;96449.69;2100472;27;20553;-62
2022/06/09 09:34:36;;;;;;;116.97;10.07;;;;;;;18.87;51.69;96448.00;2100089;28;20199;-62
2022/06/09 09:35:41;;;;;;;115.88;9.23;;;;;;;18.90;51.24;96437.19;2097534;28;20244;-59
2022/06/09 09:36:48;;;;;;;116.40;9.10;;;;;;;19.11;50.49;96446.16;2091269;27;20199;-59
2022/06/09 09:40:59;;;;;;;173.00;61.10;;;;;;;18.74;51.05;96452.59;2084077;28;20544;-62
2022/06/09 09:42:12;;;;;;;186.70;77.07;;;;;;;19.30;49.44;96440.19;2085887;28;20303;-60
2022/06/09 10:13:51;;;;;;;137.20;12.45;;;;;;;20.47;45.52;96472.66;2091495;28;20552;-59
2022/06/09 10:15:30;;;;;;;142.80;9.23;;;;;;;20.96;45.74;96467.50;2083474;28;21049;-60
2022/06/09 10:16:32;;;;;;;191.82;36.20;;;;;;;21.19;45.59;96478.69;2081065;28;20715;-59
2022/06/09 10:18:17;;;;;;;140.02;9.93;;;;;;;21.04;46.17;96474.78;2077152;28;20188;-59
2022/06/09 10:19:38;;;;;;;139.27;10.35;;;;;;;20.66;46.22;96471.88;2077161;28;20181;-59
2022/06/09 10:21:08;;;;;;;139.68;7.65;;;;;;;20.66;46.13;96477.16;2069445;28;20650;-59
2022/06/09 10:22:21;;;;;;;140.35;8.55;;;;;;;20.06;47.45;96472.63;2069720;28;20221;-60
2022/06/09 10:33:38;;;;;;;134.82;7.13;;;;;;;19.30;47.35;96488.69;2085733;28;20698;-59
2022/06/09 10:34:48;;;;;;;137.73;7.03;;;;;;;20.17;47.12;96489.41;2077976;28;20205;-58
2022/06/09 10:35:55;;;;;;;136.55;6.88;;;;;;;20.50;46.28;96485.63;2078074;28;20197;-59
2022/06/09 10:37:13;;;;;;;136.30;6.53;;;;;;;20.89;45.12;96492.91;2064957;28;20272;-58
2022/06/09 10:38:53;;;;;;;136.80;6.45;;;;;;;21.00;45.52;96489.28;2077252;28;20295;-58
2022/06/09 10:40:04;;;;;;;134.43;7.65;;;;;;;20.93;44.12;96488.16;2069049;28;20208;-59
2022/06/09 10:41:13;;;;;;;133.43;6.40;;;;;;;21.77;43.82;96492.94;2070459;28;20541;-59
2022/06/09 10:42:25;;;;;;;141.40;13.98;;;;;;;20.94;44.81;96488.03;2069952;28;20228;-58
2022/06/09 10:43:33;;;;;;;134.85;9.35;;;;;;;21.25;45.53;96501.19;2070558;28;20511;-59
2022/06/09 10:44:44;;;;;;;131.52;7.50;;;;;;;20.99;46.75;96495.59;2069573;28;20206;-58
2022/06/09 10:46:22;;;;;;;133.55;7.57;;;;;;;20.29;49.05;96496.31;2070183;28;20208;-59
2022/06/09 10:59:49;;;;;;;143.05;7.65;;;;;;;19.67;47.49;96501.50;2092041;27;21069;-62
2022/06/09 11:00:51;;;;;;;138.65;8.95;;;;;;;19.74;47.16;96502.66;2086131;28;20199;-62
2022/06/09 11:12:58;;;;;;;146.57;13.73;;;;;;;18.85;53.05;96515.22;2085906;28;20572;-64
2022/06/09 11:14:05;;;;;;;148.40;9.48;;;;;;;19.32;51.55;96515.00;2084665;28;20231;-64
2022/06/09 11:15:13;;;;;;;132.68;13.30;;;;;;;19.74;51.42;96512.41;2082079;28;20203;-64
2022/06/09 11:16:30;;;;;;;134.10;9.07;;;;;;;20.81;49.49;96509.50;2083913;28;20403;-64
2022/06/09 11:17:37;;;;;;;156.70;43.58;;;;;;;20.99;48.95;96514.97;2076080;28;20232;-64
2022/06/09 11:18:50;;;;;;;147.77;42.00;;;;;;;21.39;47.84;96512.38;2073239;28;20216;-64
2022/06/09 11:20:17;;;;;;;134.75;8.13;;;;;;;20.92;45.24;96511.19;2076161;28;20205;-64
2022/06/09 11:21:33;;;;;;;131.73;6.43;;;;;;;21.10;46.00;96503.41;2072922;28;20201;-64
2022/06/09 11:22:52;;;;;;;131.57;10.02;;;;;;;21.26;46.00;96510.00;2072612;28;20861;-64
2022/06/09 11:24:23;;;;;;;136.48;15.18;;;;;;;21.94;45.54;96517.13;2073443;28;20229;-64
2022/06/09 11:25:48;;;;;;;138.90;11.48;;;;;;;22.32;44.43;96510.88;2074029;28;20198;-64
2022/06/09 11:27:01;;;;;;;127.35;5.20;;;;;;;22.44;43.12;96516.03;2065476;28;20703;-63
2022/06/09 11:28:14;;;;;;;127.78;4.53;;;;;;;21.39;42.99;96510.56;2081531;28;20218;-64
2022/06/09 11:29:34;;;;;;;128.18;4.65;;;;;;;21.29;44.17;96513.22;2077726;28;20193;-64
2022/06/09 11:30:58;;;;;;;130.45;5.32;;;;;;;21.41;45.30;96519.22;2073285;28;20200;-64
2022/06/09 11:32:22;;;;;;;130.98;9.05;;;;;;;20.27;47.14;96518.63;2066234;28;20223;-65
2022/06/09 11:33:32;;;;;;;127.20;5.00;;;;;;;20.00;47.70;96520.84;2081677;28;20604;-64
2022/06/09 11:34:46;;;;;;;134.07;7.78;;;;;;;20.17;47.60;96522.03;2073603;28;20220;-65
2022/06/09 11:36:06;;;;;;;134.05;10.48;;;;;;;20.18;48.34;96520.25;2071612;28;20200;-64
2022/06/09 11:37:28;;;;;;;133.73;8.00;;;;;;;20.31;47.08;96518.22;2073564;28;20217;-66
2022/06/09 11:38:51;;;;;;;129.30;6.25;;;;;;;20.03;46.00;96519.75;2074618;28;20197;-63
2022/06/09 11:40:17;;;;;;;132.43;7.57;;;;;;;19.84;46.78;96525.75;2073809;28;20205;-63
2022/06/09 11:41:49;;;;;;;129.40;5.53;;;;;;;20.11;46.80;96524.38;2073966;28;20205;-66
2022/06/09 11:42:56;;;;;;;128.45;5.55;;;;;;;21.12;45.27;96522.69;2071587;28;20209;-66
2022/06/09 11:44:08;;;;;;;126.88;5.45;;;;;;;21.41;43.85;96513.06;2074443;28;20243;-64
2022/06/09 11:45:48;;;;;;;128.75;6.82;;;;;;;21.39;44.08;96523.00;2073538;28;20658;-64
2022/06/09 11:46:52;;;;;;;127.20;4.85;;;;;;;21.21;44.13;96524.50;2065606;28;20209;-64
2022/06/09 11:47:56;;;;;;;131.43;10.63;;;;;;;20.84;44.63;96527.78;2083741;28;20197;-64
2022/06/09 11:49:06;;;;;;;126.45;5.10;;;;;;;20.80;44.36;96525.56;2081060;28;20197;-62
2022/06/09 11:50:09;;;;;;;128.57;5.70;;;;;;;20.27;43.93;96514.16;2076471;28;20205;-61
2022/06/09 11:51:11;;;;;;;132.48;10.63;;;;;;;19.97;45.32;96523.78;2072760;28;20431;-61
2022/06/09 11:52:40;;;;;;;129.95;8.30;;;;;;;19.65;45.93;96516.66;2069353;28;20346;-61
2022/06/09 11:53:50;;;;;;;137.70;10.00;;;;;;;19.90;46.18;96519.94;2079495;28;20212;-62
2022/06/09 11:54:52;;;;;;;130.43;7.70;;;;;;;20.90;45.56;96534.38;2071947;28;20209;-62
2022/06/09 11:56:33;;;;;;;132.73;6.60;;;;;;;20.23;45.66;96515.38;2074851;28;20193;-62
2022/06/09 11:57:46;;;;;;;127.90;5.55;;;;;;;20.35;46.18;96516.13;2068746;28;20290;-62
2022/06/09 11:58:48;;;;;;;129.70;5.30;;;;;;;20.44;45.94;96495.94;2072148;28;20202;-62
2022/06/09 12:00:14;;;;;;;127.90;5.63;;;;;;;20.39;46.49;96523.69;2073023;28;20197;-63
2022/06/09 12:01:15;;;;;;;128.30;5.35;;;;;;;20.49;46.15;96526.41;2072295;28;20201;-64
2022/06/09 12:02:41;;;;;;;125.03;4.93;;;;;;;20.56;45.16;96527.53;2069335;28;20225;-64
2022/06/09 12:03:58;;;;;;;126.70;5.38;;;;;;;20.31;45.71;96520.84;2076235;28;20288;-64
2022/06/09 12:05:15;;;;;;;127.25;6.22;;;;;;;20.93;45.18;96520.00;2074896;28;20204;-64
2022/06/09 12:06:26;;;;;;;129.43;5.35;;;;;;;21.25;44.52;96525.06;2073301;28;20209;-63
2022/06/09 12:07:42;;;;;;;129.57;7.50;;;;;;;21.44;44.35;96526.91;2070411;28;20678;-62
2022/06/09 12:08:47;;;;;;;126.68;5.10;;;;;;;22.28;43.17;96535.22;2079270;28;20275;-62
2022/06/09 12:10:16;;;;;;;125.53;5.15;;;;;;;22.18;42.55;96532.59;2072703;28;20736;-61
2022/06/09 12:11:21;;;;;;;130.57;6.85;;;;;;;21.88;43.00;96518.53;2076298;28;20197;-62
2022/06/09 12:12:43;;;;;;;127.15;5.90;;;;;;;21.75;44.56;96520.63;2072058;28;20224;-61
2022/06/09 12:13:44;;;;;;;130.25;10.95;;;;;;;21.29;43.63;96517.69;2079102;28;20190;-61
2022/06/09 12:14:46;;;;;;;136.77;20.83;;;;;;;20.86;44.29;96522.34;2074049;28;20202;-61
2022/06/09 12:16:01;;;;;;;131.27;14.93;;;;;;;20.80;44.53;96530.88;2072739;28;20205;-61
2022/06/09 12:17:08;;;;;;;126.20;10.25;;;;;;;20.19;45.82;96528.06;2066275;28;20221;-61
2022/06/09 12:18:12;;;;;;;132.10;16.95;;;;;;;19.79;45.58;96528.75;2081699;28;20311;-60
2022/06/09 12:19:17;;;;;;;126.65;6.65;;;;;;;19.85;46.90;96527.44;2077035;28;20215;-62
2022/06/09 12:20:59;;;;;;;134.13;12.10;;;;;;;19.59;48.12;96535.72;2074676;28;20197;-61
2022/06/09 12:22:39;;;;;;;130.25;6.80;;;;;;;19.64;47.86;96540.63;2067321;28;20220;-63
2022/06/09 12:23:52;;;;;;;124.68;5.10;;;;;;;19.98;48.09;96536.03;2076948;28;20193;-64
2022/06/09 12:25:11;;;;;;;131.23;6.00;;;;;;;19.90;46.04;96534.03;2067955;28;20199;-63
2022/06/09 12:26:14;;;;;;;126.47;4.90;;;;;;;20.60;45.02;96541.38;2068478;28;20198;-64
2022/06/09 12:27:21;;;;;;;131.57;8.25;;;;;;;20.57;43.82;96539.00;2068101;28;20247;-64
2022/06/09 12:28:44;;;;;;;138.30;17.58;;;;;;;20.37;43.35;96536.25;2069311;28;20288;-63
2022/06/09 12:29:58;;;;;;;137.07;22.50;;;;;;;21.29;41.13;96537.13;2068200;28;20197;-64
2022/06/09 12:31:10;;;;;;;138.75;26.38;;;;;;;21.84;40.11;96530.44;2063933;28;20193;-63
2022/06/09 12:32:16;;;;;;;141.73;32.67;;;;;;;22.56;39.60;96533.47;2056203;28;20230;-63
2022/06/09 12:33:27;;;;;;;149.18;46.30;;;;;;;22.33;38.03;96525.84;2073181;28;20202;-63
2022/06/09 12:34:29;;;;;;;153.70;50.83;;;;;;;22.09;39.80;96523.66;2069084;28;20197;-63
2022/06/09 12:35:35;;;;;;;150.65;55.22;;;;;;;22.18;40.15;96537.91;2069576;28;20201;-64
2022/06/09 12:36:57;;;;;;;151.75;53.83;;;;;;;22.60;40.07;96523.38;2060533;28;20806;-63
2022/06/09 12:38:06;;;;;;;154.82;55.03;;;;;;;22.42;39.01;96523.31;2075970;28;20200;-63
2022/06/09 12:39:26;;;;;;;147.20;47.95;;;;;;;23.34;40.44;96532.25;2073785;28;20198;-64
2022/06/09 12:40:39;;;;;;;149.68;48.60;;;;;;;23.05;39.52;96522.59;2066775;28;20641;-61
2022/06/09 12:41:43;;;;;;;139.85;21.52;;;;;;;23.74;39.61;96530.94;2057895;28;20193;-60
2022/06/09 12:42:58;;;;;;;137.68;29.45;;;;;;;23.85;40.41;96534.38;2076649;28;20197;-61
2022/06/09 12:44:22;;;;;;;147.77;47.08;;;;;;;22.71;40.73;96536.50;2073723;28;20201;-60
2022/06/09 12:45:28;;;;;;;165.50;54.90;;;;;;;22.23;41.40;96548.13;2068875;28;20214;-61
2022/06/09 12:46:31;;;;;;;165.60;72.97;;;;;;;22.64;41.35;96546.91;2069475;28;20224;-59
2022/06/09 12:47:33;;;;;;;155.93;48.20;;;;;;;22.58;41.44;96544.81;2067264;28;20226;-59
2022/06/09 12:48:35;;;;;;;148.52;44.03;;;;;;;22.35;41.93;96554.97;2071172;28;20194;-59
2022/06/09 12:49:43;;;;;;;143.05;42.75;;;;;;;22.65;41.12;96545.06;2070449;28;20607;-59
2022/06/09 12:50:50;;;;;;;143.15;43.97;;;;;;;23.40;40.04;96552.09;2068368;28;20568;-59
2022/06/09 12:51:52;;;;;;;153.48;60.45;;;;;;;23.43;39.00;96533.19;2061337;28;20288;-59
2022/06/09 12:52:54;;;;;;;156.43;64.28;;;;;;;23.94;38.74;96546.81;2074433;28;20198;-59
2022/06/09 12:54:20;;;;;;;150.40;41.38;;;;;;;24.68;37.41;96547.28;2072908;28;20809;-59
2022/06/09 12:55:26;;;;;;;150.32;52.47;;;;;;;24.10;37.78;96549.59;2069276;28;20554;-59
2022/06/09 12:56:37;;;;;;;147.40;40.72;;;;;;;24.37;35.60;96549.59;2068990;28;20868;-59
2022/06/09 12:57:47;;;;;;;142.85;40.97;;;;;;;25.13;35.00;96557.81;2067897;28;20228;-59
2022/06/09 12:58:50;;;;;;;147.38;36.55;;;;;;;25.38;34.86;96556.06;2067919;28;20208;-59
2022/06/09 13:00:15;;;;;;;144.70;37.70;;;;;;;25.02;35.67;96553.63;2068336;28;20195;-59
2022/06/09 13:01:23;;;;;;;136.50;28.88;;;;;;;25.01;35.12;96562.63;2070274;28;20610;-59
2022/06/09 13:02:29;;;;;;;135.80;24.45;;;;;;;25.00;34.82;96559.13;2063635;28;20230;-59
2022/06/09 13:03:41;;;;;;;147.93;34.85;;;;;;;24.46;36.53;96548.66;2076370;28;20284;-59
2022/06/09 13:05:02;;;;;;;150.57;52.25;;;;;;;24.94;35.11;96568.59;2066048;28;20209;-59
2022/06/09 13:06:32;;;;;;;130.93;17.17;;;;;;;25.18;34.93;96558.16;2068936;28;20600;-61
2022/06/09 13:07:39;;;;;;;131.80;17.63;;;;;;;24.67;34.36;96558.13;2066571;28;20590;-61
2022/06/09 13:08:44;;;;;;;139.48;22.90;;;;;;;24.26;36.22;96556.88;2069042;28;20557;-61
2022/06/09 13:10:13;;;;;;;139.25;29.42;;;;;;;24.37;36.04;96553.09;2067995;28;20198;-61
2022/06/09 13:12:50;;;;;;;136.70;23.83;;;;;;;24.74;35.36;96569.84;2065168;28;20573;-61
2022/06/09 13:12:51;;;;;;;129.25;13.55;;;;;;;23.94;35.85;96562.81;2066760;28;20249;-61
2022/06/09 13:13:54;;;;;;;141.50;26.55;;;;;;;23.86;36.82;96565.34;2070065;28;20198;-61
2022/06/09 13:15:03;;;;;;;146.00;37.78;;;;;;;24.50;36.08;96565.19;2065583;28;20194;-61
2022/06/09 13:16:11;;;;;;;152.35;55.75;;;;;;;24.37;36.57;96566.44;2065296;28;20230;-61
2022/06/09 13:17:26;;;;;;;138.60;29.08;;;;;;;24.28;34.80;96568.22;2061301;28;20270;-61
2022/06/09 13:18:39;;;;;;;150.98;51.67;;;;;;;24.17;36.11;96562.31;2071702;28;20193;-61
2022/06/09 13:19:41;;;;;;;152.70;55.30;;;;;;;24.78;36.30;96568.53;2068213;28;20676;-61
2022/06/09 13:20:57;;;;;;;145.63;39.55;;;;;;;24.54;36.40;96569.22;2067535;28;20676;-61
2022/06/09 13:22:02;;;;;;;161.00;59.53;;;;;;;24.51;36.42;96570.34;2060829;28;20418;-61
2022/06/09 13:23:05;;;;;;;158.75;62.55;;;;;;;24.24;37.68;96566.00;2064448;28;20202;-61
2022/06/09 13:24:15;;;;;;;162.35;75.38;;;;;;;23.34;38.78;96563.38;2066389;28;20316;-61
2022/06/09 13:25:21;;;;;;;139.25;23.23;;;;;;;22.25;39.41;96562.94;2067661;28;20199;-61
2022/06/09 13:26:31;;;;;;;142.20;38.33;;;;;;;22.37;40.64;96568.13;2067261;28;20205;-61
2022/06/09 13:27:33;;;;;;;157.07;65.10;;;;;;;21.99;41.99;96568.03;2068287;28;20692;-61
2022/06/09 13:28:44;;;;;;;148.85;57.35;;;;;;;21.91;40.18;96571.41;2068834;28;20202;-61
2022/06/09 13:30:12;;;;;;;161.55;77.68;;;;;;;21.59;41.96;96579.66;2070211;28;20220;-61
2022/06/09 13:31:25;;;;;;;158.73;68.65;;;;;;;22.05;41.18;96582.59;2052563;28;20273;-60
2022/06/09 13:32:45;;;;;;;165.02;87.55;;;;;;;22.33;40.37;96587.03;2065544;28;20684;-61
2022/06/09 13:34:01;;;;;;;155.98;70.35;;;;;;;21.91;40.64;96587.34;2073993;28;20221;-60
2022/06/09 13:35:26;;;;;;;169.45;89.45;;;;;;;21.29;42.97;96592.88;2068339;28;20202;-61
2022/06/09 13:36:32;;;;;;;160.63;74.63;;;;;;;20.90;44.63;96592.78;2063098;28;20202;-61
2022/06/09 13:38:17;;;;;;;145.40;40.92;;;;;;;20.44;46.17;96594.88;2061747;28;20719;-61
2022/06/09 13:40:00;;;;;;;156.65;51.72;;;;;;;19.70;46.65;96604.53;2071481;28;20197;-62
2022/06/09 13:41:31;;;;;;;142.55;35.92;;;;;;;19.08;46.46;96612.16;2068828;28;20198;-61
2022/06/09 13:42:46;;;;;;;139.77;22.80;;;;;;;18.75;47.18;96616.47;2059229;28;20309;-59
2022/06/09 13:43:51;;;;;;;124.90;7.35;;;;;;;18.68;47.75;96612.63;2067704;28;20190;-58
2022/06/09 13:44:59;;;;;;;148.05;23.95;;;;;;;18.50;48.04;96619.34;2066436;28;20201;-59
2022/06/09 13:46:34;;;;;;;126.88;6.07;;;;;;;19.24;47.01;96629.47;2066373;28;20313;-59
2022/06/09 13:47:39;;;;;;;140.32;12.43;;;;;;;19.61;46.50;96618.53;2064999;28;20222;-58
2022/06/09 13:48:49;;;;;;;123.75;6.20;;;;;;;19.00;47.83;96627.78;2067505;28;20565;-58
2022/06/09 13:50:17;;;;;;;128.20;8.30;;;;;;;18.93;47.29;96627.44;2069207;28;20229;-58
2022/06/09 13:51:54;;;;;;;128.43;8.30;;;;;;;19.19;46.81;96631.63;2069397;28;20194;-58
2022/06/09 13:53:28;;;;;;;129.40;10.68;;;;;;;18.82;47.16;96626.59;2067023;28;20221;-58
2022/06/09 13:54:42;;;;;;;124.72;5.95;;;;;;;18.79;46.46;96630.28;2067223;28;20701;-58
2022/06/09 13:55:43;;;;;;;123.03;6.13;;;;;;;18.59;46.88;96626.56;2068128;28;20198;-57
2022/06/09 13:56:46;;;;;;;125.07;7.28;;;;;;;18.34;48.17;96631.09;2060620;28;20209;-58
2022/06/09 13:57:51;;;;;;;128.70;10.95;;;;;;;18.24;49.18;96635.41;2073086;28;20213;-57
2022/06/09 13:58:52;;;;;;;135.70;15.27;;;;;;;18.48;49.44;96626.56;2073041;28;20193;-58
2022/06/09 13:59:55;;;;;;;129.18;13.13;;;;;;;18.52;49.05;96636.75;2069029;28;20198;-57
2022/06/09 14:01:01;;;;;;;135.48;19.05;;;;;;;17.97;49.56;96619.81;2066465;28;20202;-59
2022/06/09 14:02:03;;;;;;;136.52;20.95;;;;;;;17.92;50.50;96623.63;2056099;28;20275;-59
2022/06/09 14:03:30;;;;;;;138.60;23.70;;;;;;;18.14;50.39;96629.97;2075715;28;20205;-60
2022/06/09 14:04:33;;;;;;;134.52;22.00;;;;;;;17.80;49.88;96637.72;2069170;28;20233;-58
2022/06/09 14:05:39;;;;;;;134.95;20.27;;;;;;;17.65;51.11;96633.59;2070129;28;20221;-59
2022/06/09 14:06:41;;;;;;;133.10;25.10;;;;;;;17.52;51.22;96628.38;2065724;28;20206;-58
2022/06/09 14:07:43;;;;;;;138.32;25.55;;;;;;;17.69;51.42;96632.44;2068306;28;20199;-59
2022/06/09 14:08:47;;;;;;;136.95;28.13;;;;;;;17.49;51.45;96628.59;2068520;28;20194;-59
2022/06/09 14:09:48;;;;;;;140.38;26.45;;;;;;;17.48;51.47;96626.91;2066587;28;20197;-59
2022/06/09 14:10:50;;;;;;;137.23;25.92;;;;;;;17.86;51.19;96636.44;2069115;28;20204;-59
2022/06/09 14:11:53;;;;;;;137.90;24.60;;;;;;;17.70;50.18;96636.72;2058449;28;20222;-59
2022/06/09 14:13:13;;;;;;;138.25;29.15;;;;;;;17.66;50.77;96633.50;2072398;28;20201;-59
2022/06/09 14:14:14;;;;;;;139.60;29.63;;;;;;;17.70;50.17;96629.66;2068612;28;20222;-59
2022/06/09 14:15:18;;;;;;;142.13;31.58;;;;;;;17.77;50.85;96630.88;2069282;28;20197;-59
2022/06/09 14:16:24;;;;;;;138.82;30.38;;;;;;;17.64;50.99;96635.41;2069657;28;20581;-59
2022/06/09 14:17:28;;;;;;;141.10;31.13;;;;;;;17.63;50.63;96633.69;2066441;28;20226;-59
2022/06/09 14:18:33;;;;;;;136.90;27.05;;;;;;;17.60;51.52;96633.94;2075007;28;20326;-59
2022/06/09 14:19:35;;;;;;;134.88;13.55;;;;;;;17.71;51.90;96636.63;2062591;28;20393;-59
2022/06/09 14:20:37;;;;;;;134.65;17.65;;;;;;;17.70;52.36;96631.44;2063242;28;20829;-59
2022/06/09 14:21:38;;;;;;;133.77;19.08;;;;;;;17.72;51.08;96635.66;2057558;28;20205;-59
2022/06/09 14:22:40;;;;;;;137.95;25.23;;;;;;;17.72;51.08;96632.19;2066708;28;20198;-59
2022/06/09 14:23:41;;;;;;;133.38;22.10;;;;;;;17.55;50.81;96631.63;2067799;28;20782;-59
2022/06/09 14:24:43;;;;;;;135.52;23.50;;;;;;;17.57;51.14;96628.88;2066804;28;20569;-59
2022/06/09 14:25:45;;;;;;;144.30;23.70;;;;;;;17.62;50.86;96634.66;2067751;28;20557;-58
2022/06/09 14:26:50;;;;;;;136.40;18.95;;;;;;;17.74;51.26;96628.47;2066889;28;20201;-58
2022/06/09 14:27:51;;;;;;;136.05;28.02;;;;;;;17.69;50.25;96633.25;2067788;28;20202;-59
2022/06/09 14:28:55;;;;;;;142.15;31.13;;;;;;;17.85;49.68;96629.47;2070383;28;20668;-59
2022/06/09 14:29:57;;;;;;;137.43;31.40;;;;;;;18.38;49.07;96639.63;2067313;28;20608;-59
2022/06/09 14:30:59;;;;;;;144.57;36.05;;;;;;;18.38;48.80;96640.47;2069131;28;20206;-59
2022/06/09 14:32:01;;;;;;;138.32;30.75;;;;;;;18.68;47.88;96641.72;2062406;28;20597;-59
2022/06/09 14:33:04;;;;;;;137.27;26.17;;;;;;;18.82;47.18;96642.47;2076623;28;20197;-59
2022/06/09 14:34:06;;;;;;;130.23;17.95;;;;;;;18.85;46.82;96658.06;2070633;28;20228;-59
2022/06/09 14:35:13;;;;;;;132.68;17.73;;;;;;;19.20;46.53;96651.84;2066203;28;20206;-59
2022/06/09 14:36:18;;;;;;;131.85;16.35;;;;;;;19.55;46.37;96653.47;2066304;28;20205;-59
2022/06/09 14:37:22;;;;;;;130.90;17.10;;;;;;;20.14;45.68;96659.31;2062061;28;20619;-59
2022/06/09 14:38:24;;;;;;;126.10;13.70;;;;;;;20.26;44.79;96652.97;2074414;28;20209;-59
2022/06/09 14:39:25;;;;;;;123.97;8.00;;;;;;;20.53;44.38;96641.84;2068421;28;20638;-59
2022/06/09 14:40:33;;;;;;;123.50;7.90;;;;;;;20.60;43.63;96658.06;2068545;28;20649;-59
2022/06/09 14:41:36;;;;;;;121.57;5.70;;;;;;;21.42;42.15;96656.38;2056014;28;20199;-59
2022/06/09 14:42:37;;;;;;;119.57;4.68;;;;;;;21.68;41.83;96661.19;2065254;28;20190;-60
2022/06/09 14:43:39;;;;;;;121.70;5.40;;;;;;;21.32;42.88;96656.31;2054498;28;20210;-59
2022/06/09 14:44:41;;;;;;;122.70;7.00;;;;;;;20.84;43.13;96655.16;2061655;28;20258;-59
2022/06/09 14:45:49;;;;;;;125.72;8.50;;;;;;;20.58;43.15;96649.41;2063164;28;20202;-59
2022/06/09 14:46:53;;;;;;;121.35;7.90;;;;;;;20.33;44.30;96661.28;2062378;28;21603;-59
2022/06/09 14:47:54;;;;;;;124.68;8.25;;;;;;;20.97;43.68;96668.19;2068226;28;20202;-60
2022/06/09 14:48:56;;;;;;;124.07;6.97;;;;;;;21.23;42.61;96659.81;2067052;28;20209;-59
2022/06/09 14:49:58;;;;;;;122.70;8.13;;;;;;;21.71;41.88;96668.03;2067213;28;20609;-59
2022/06/09 14:50:59;;;;;;;120.60;6.40;;;;;;;22.22;41.62;96655.47;2067179;28;20194;-59
2022/06/09 14:52:01;;;;;;;120.57;7.90;;;;;;;22.02;41.53;96651.00;2060424;28;20216;-59
2022/06/09 14:53:02;;;;;;;131.80;7.63;;;;;;;21.98;41.79;96656.75;2070945;28;20583;-60
2022/06/09 14:54:04;;;;;;;127.95;9.98;;;;;;;22.28;41.20;96655.75;2069797;28;20544;-59
2022/06/09 14:55:06;;;;;;;122.93;10.85;;;;;;;22.43;41.75;96658.81;2067213;28;20202;-59
2022/06/09 14:56:08;;;;;;;128.90;23.15;;;;;;;22.86;39.77;96651.31;2067780;28;20205;-59
2022/06/09 14:57:15;;;;;;;124.38;20.85;;;;;;;23.19;39.88;96662.44;2062619;28;20247;-59
2022/06/09 14:58:22;;;;;;;128.27;24.00;;;;;;;23.44;39.92;96663.56;2074200;28;20668;-59
2022/06/09 14:59:24;;;;;;;134.70;35.30;;;;;;;22.92;39.62;96650.72;2068402;28;20217;-59
2022/06/09 15:00:26;;;;;;;139.15;32.60;;;;;;;22.69;40.52;96655.59;2068264;28;20202;-59
2022/06/09 15:01:27;;;;;;;137.63;36.70;;;;;;;22.63;39.42;96653.50;2070218;28;20213;-59
2022/06/09 15:02:29;;;;;;;140.50;34.65;;;;;;;22.38;39.35;96660.25;2063581;28;20693;-59
2022/06/09 15:03:31;;;;;;;136.32;41.92;;;;;;;22.42;39.89;96656.31;2075302;28;20205;-59
2022/06/09 15:04:34;;;;;;;138.60;45.00;;;;;;;22.47;40.59;96654.94;2067225;28;20199;-60
2022/06/09 15:05:36;;;;;;;132.98;38.30;;;;;;;22.58;39.30;96655.75;2068108;28;20197;-60
2022/06/09 15:06:39;;;;;;;132.85;32.42;;;;;;;22.56;37.92;96650.53;2066958;28;20205;-60
2022/06/09 15:07:41;;;;;;;137.82;45.75;;;;;;;22.88;38.66;96660.00;2066137;28;20607;-60
2022/06/09 15:08:45;;;;;;;139.77;48.88;;;;;;;22.94;38.58;96650.59;2068161;28;20199;-59
2022/06/09 15:09:48;;;;;;;134.80;38.17;;;;;;;23.03;38.07;96664.84;2068072;28;20642;-59
2022/06/09 15:10:52;;;;;;;139.30;41.78;;;;;;;22.41;39.42;96665.28;2074736;28;20201;-59
2022/06/09 15:11:54;;;;;;;137.57;46.60;;;;;;;22.81;39.96;96669.53;2064584;28;20596;-59
2022/06/09 15:12:55;;;;;;;140.90;43.88;;;;;;;22.87;39.08;96670.78;2075648;28;20216;-59
2022/06/09 15:13:57;;;;;;;139.75;45.67;;;;;;;22.82;39.46;96673.88;2073657;28;20217;-59
2022/06/09 15:15:19;;;;;;;149.85;60.00;;;;;;;22.81;39.69;96677.53;2070122;28;20561;-60
2022/06/09 15:16:21;;;;;;;139.52;45.53;;;;;;;22.64;39.55;96671.13;2064484;28;20229;-59
2022/06/09 15:17:39;;;;;;;143.98;47.78;;;;;;;22.19;40.03;96677.84;2069466;28;20642;-59
2022/06/09 15:18:42;;;;;;;141.25;47.33;;;;;;;22.45;39.75;96683.47;2067524;28;20202;-59
2022/06/09 15:19:44;;;;;;;143.15;57.55;;;;;;;22.85;39.36;96684.22;2065566;28;20198;-60
2022/06/09 15:20:55;;;;;;;142.23;50.78;;;;;;;22.62;38.87;96700.53;2067796;28;20197;-60
2022/06/09 15:21:56;;;;;;;142.52;57.03;;;;;;;22.09;42.06;96700.94;2060529;28;20221;-59
2022/06/09 15:22:58;;;;;;;137.27;44.45;;;;;;;21.57;43.53;96688.69;2076284;28;20216;-59
2022/06/09 15:23:59;;;;;;;129.85;30.60;;;;;;;20.91;44.30;96694.44;2069217;28;20206;-59
2022/06/09 15:25:01;;;;;;;131.93;32.80;;;;;;;20.74;44.40;96723.25;2065813;28;20194;-59
2022/06/09 15:26:04;;;;;;;129.77;16.15;;;;;;;20.86;44.89;96721.34;2067873;28;20288;-60
2022/06/09 15:27:05;;;;;;;126.68;14.73;;;;;;;21.27;44.22;96727.59;2059865;28;20226;-59
2022/06/09 15:28:08;;;;;;;127.72;14.15;;;;;;;20.82;44.91;96723.47;2073773;28;20716;-59
2022/06/09 15:29:11;;;;;;;123.05;8.20;;;;;;;20.94;45.20;96726.00;2069875;28;20189;-59
2022/06/09 15:30:19;;;;;;;120.90;7.97;;;;;;;21.08;45.20;96733.66;2062829;28;20195;-59
2022/06/09 15:31:21;;;;;;;123.45;9.77;;;;;;;20.75;46.38;96742.66;2062883;28;20582;-59
2022/06/09 15:32:22;;;;;;;120.05;6.70;;;;;;;20.83;46.42;96738.38;2064350;28;20233;-59
2022/06/09 15:33:25;;;;;;;122.53;6.95;;;;;;;20.90;46.97;96752.00;2074327;28;20209;-59
2022/06/09 15:34:27;;;;;;;124.32;7.10;;;;;;;20.72;47.39;96749.06;2065492;28;20337;-59
2022/06/09 15:35:29;;;;;;;120.97;9.55;;;;;;;20.08;49.02;96753.41;2070867;28;20285;-59
2022/06/09 15:36:31;;;;;;;118.22;8.23;;;;;;;20.41;48.95;96753.44;2069610;28;20201;-59
2022/06/09 15:37:33;;;;;;;121.68;9.25;;;;;;;19.78;50.06;96752.25;2073244;28;20216;-59
2022/06/09 15:38:35;;;;;;;128.70;16.60;;;;;;;18.81;52.88;96755.34;2076578;28;20208;-59
2022/06/09 15:39:36;;;;;;;128.27;22.88;;;;;;;19.39;53.13;96754.47;2065471;28;20198;-59
2022/06/09 15:40:40;;;;;;;127.20;21.75;;;;;;;18.62;54.28;96753.25;2065119;28;20201;-58
2022/06/09 15:41:42;;;;;;;125.80;17.27;;;;;;;18.25;55.77;96758.66;2064166;28;20202;-57
2022/06/09 15:42:44;;;;;;;136.20;34.08;;;;;;;17.34;58.26;96752.78;2065426;28;20198;-59
2022/06/09 15:43:45;;;;;;;137.80;42.00;;;;;;;17.25;59.69;96751.63;2066050;28;20193;-59
2022/06/09 15:44:47;;;;;;;142.07;52.58;;;;;;;17.32;60.96;96756.47;2066158;28;20202;-59
2022/06/09 15:45:51;;;;;;;127.97;21.60;;;;;;;17.10;62.31;96757.97;2067943;28;20194;-58
2022/06/09 15:46:52;;;;;;;126.22;21.67;;;;;;;16.19;64.62;96764.03;2060616;28;20274;-59
2022/06/09 15:48:08;;;;;;;116.75;13.15;;;;;;;16.57;63.85;96765.91;2074315;28;20342;-58
2022/06/09 15:49:16;;;;;;;153.32;59.80;;;;;;;16.64;62.27;96761.94;2068454;28;20203;-59
2022/06/09 15:50:22;;;;;;;144.20;57.58;;;;;;;16.31;62.17;96763.25;2067343;28;20202;-59
2022/06/09 15:51:23;;;;;;;139.80;54.50;;;;;;;16.38;61.45;96763.66;2066109;28;20562;-57
2022/06/09 15:52:25;;;;;;;122.50;25.17;;;;;;;16.46;61.86;96767.47;2064436;28;20216;-58
2022/06/09 15:53:27;;;;;;;119.25;17.83;;;;;;;16.45;61.92;96771.06;2075502;28;20285;-58